sensor_id;sensor_type;location;lat;lon;timestamp;temperature;humidity
72604;DHT22;60645;56.968;24.196;2022-08-19T00:02:03;25.70;65.80
72604;DHT22;60645;56.968;24.196;2022-08-19T00:04:32;25.60;66.00
72604;DHT22;60645;56.968;24.196;2022-08-19T00:07:03;25.60;66.20
72604;DHT22;60645;56.968;24.196;2022-08-19T00:09:30;25.60;66.00
72604;DHT22;60645;56.968;24.196;2022-08-19T00:11:58;25.70;66.50
72604;DHT22;60645;56.968;24.196;2022-08-19T00:14:26;25.60;66.20
72604;DHT22;60645;56.968;24.196;2022-08-19T00:16:54;25.60;66.00
72604;DHT22;60645;56.968;24.196;2022-08-19T00:19:22;25.50;66.50
72604;DHT22;60645;56.968;24.196;2022-08-19T00:21:50;25.50;66.20
72604;DHT22;60645;56.968;24.196;2022-08-19T00:24:17;25.40;66.80
72604;DHT22;60645;56.968;24.196;2022-08-19T00:26:45;25.50;66.50
72604;DHT22;60645;56.968;24.196;2022-08-19T00:29:15;25.50;66.60
72604;DHT22;60645;56.968;24.196;2022-08-19T00:31:43;25.60;66.50
72604;DHT22;60645;56.968;24.196;2022-08-19T00:34:12;25.40;66.60
72604;DHT22;60645;56.968;24.196;2022-08-19T00:36:40;25.40;66.90
72604;DHT22;60645;56.968;24.196;2022-08-19T00:39:08;25.40;66.90
72604;DHT22;60645;56.968;24.196;2022-08-19T00:41:35;25.50;66.80
72604;DHT22;60645;56.968;24.196;2022-08-19T00:44:27;25.40;66.60
72604;DHT22;60645;56.968;24.196;2022-08-19T00:46:56;25.50;66.90
72604;DHT22;60645;56.968;24.196;2022-08-19T00:49:36;25.50;66.80
72604;DHT22;60645;56.968;24.196;2022-08-19T00:52:08;25.50;66.80
72604;DHT22;60645;56.968;24.196;2022-08-19T00:54:37;25.40;66.80
72604;DHT22;60645;56.968;24.196;2022-08-19T00:57:12;25.40;66.90
72604;DHT22;60645;56.968;24.196;2022-08-19T00:59:44;25.40;66.90
72604;DHT22;60645;56.968;24.196;2022-08-19T01:02:29;25.40;67.30
72604;DHT22;60645;56.968;24.196;2022-08-19T01:04:56;25.30;67.10
72604;DHT22;60645;56.968;24.196;2022-08-19T01:07:24;25.20;67.60
72604;DHT22;60645;56.968;24.196;2022-08-19T01:09:51;25.30;67.60
72604;DHT22;60645;56.968;24.196;2022-08-19T01:12:19;25.30;67.40
72604;DHT22;60645;56.968;24.196;2022-08-19T01:14:47;25.30;67.30
72604;DHT22;60645;56.968;24.196;2022-08-19T01:17:15;25.40;67.80
72604;DHT22;60645;56.968;24.196;2022-08-19T01:19:43;25.40;67.10
72604;DHT22;60645;56.968;24.196;2022-08-19T01:22:18;25.40;67.50
72604;DHT22;60645;56.968;24.196;2022-08-19T01:24:56;25.30;67.40
72604;DHT22;60645;56.968;24.196;2022-08-19T01:27:25;25.30;67.40
72604;DHT22;60645;56.968;24.196;2022-08-19T01:29:54;25.20;68.10
72604;DHT22;60645;56.968;24.196;2022-08-19T01:32:22;25.30;67.90
72604;DHT22;60645;56.968;24.196;2022-08-19T01:35:00;25.20;67.70
72604;DHT22;60645;56.968;24.196;2022-08-19T01:37:28;25.20;67.80
72604;DHT22;60645;56.968;24.196;2022-08-19T01:39:57;25.10;68.20
72604;DHT22;60645;56.968;24.196;2022-08-19T01:42:24;25.10;68.30
72604;DHT22;60645;56.968;24.196;2022-08-19T01:44:56;25.00;68.40
72604;DHT22;60645;56.968;24.196;2022-08-19T01:47:23;25.00;68.30
72604;DHT22;60645;56.968;24.196;2022-08-19T01:49:50;25.10;68.50
72604;DHT22;60645;56.968;24.196;2022-08-19T01:52:17;25.00;68.50
72604;DHT22;60645;56.968;24.196;2022-08-19T01:54:44;25.00;68.60
72604;DHT22;60645;56.968;24.196;2022-08-19T01:57:13;25.00;68.60
72604;DHT22;60645;56.968;24.196;2022-08-19T01:59:42;25.00;68.90
72604;DHT22;60645;56.968;24.196;2022-08-19T02:02:10;25.00;68.50
72604;DHT22;60645;56.968;24.196;2022-08-19T02:04:37;25.00;68.80
72604;DHT22;60645;56.968;24.196;2022-08-19T02:07:06;25.00;68.90
72604;DHT22;60645;56.968;24.196;2022-08-19T02:09:34;24.90;68.70
72604;DHT22;60645;56.968;24.196;2022-08-19T02:12:03;25.00;68.60
72604;DHT22;60645;56.968;24.196;2022-08-19T02:14:29;25.00;68.40
72604;DHT22;60645;56.968;24.196;2022-08-19T02:16:56;25.00;68.90
72604;DHT22;60645;56.968;24.196;2022-08-19T02:19:23;25.00;68.30
72604;DHT22;60645;56.968;24.196;2022-08-19T02:21:50;25.00;68.50
72604;DHT22;60645;56.968;24.196;2022-08-19T02:24:17;25.10;68.10
72604;DHT22;60645;56.968;24.196;2022-08-19T02:26:44;25.10;68.00
72604;DHT22;60645;56.968;24.196;2022-08-19T02:29:11;25.00;68.20
72604;DHT22;60645;56.968;24.196;2022-08-19T02:31:38;25.10;68.40
72604;DHT22;60645;56.968;24.196;2022-08-19T02:34:05;25.20;68.40
72604;DHT22;60645;56.968;24.196;2022-08-19T02:36:32;25.10;68.10
72604;DHT22;60645;56.968;24.196;2022-08-19T02:38:59;25.00;68.10
72604;DHT22;60645;56.968;24.196;2022-08-19T02:41:30;25.00;68.30
72604;DHT22;60645;56.968;24.196;2022-08-19T02:43:59;25.10;68.10
72604;DHT22;60645;56.968;24.196;2022-08-19T02:46:47;25.10;68.20
72604;DHT22;60645;56.968;24.196;2022-08-19T02:49:18;25.00;67.90
72604;DHT22;60645;56.968;24.196;2022-08-19T02:51:46;25.00;68.20
72604;DHT22;60645;56.968;24.196;2022-08-19T02:54:13;24.90;68.30
72604;DHT22;60645;56.968;24.196;2022-08-19T02:56:42;25.00;68.50
72604;DHT22;60645;56.968;24.196;2022-08-19T02:59:10;24.90;68.60
72604;DHT22;60645;56.968;24.196;2022-08-19T03:01:39;25.00;68.70
72604;DHT22;60645;56.968;24.196;2022-08-19T03:04:09;24.90;68.90
72604;DHT22;60645;56.968;24.196;2022-08-19T03:06:37;24.90;68.70
72604;DHT22;60645;56.968;24.196;2022-08-19T03:09:05;25.00;68.70
72604;DHT22;60645;56.968;24.196;2022-08-19T03:11:32;24.90;68.80
72604;DHT22;60645;56.968;24.196;2022-08-19T03:14:01;24.80;69.10
72604;DHT22;60645;56.968;24.196;2022-08-19T03:16:31;24.70;69.30
72604;DHT22;60645;56.968;24.196;2022-08-19T03:19:00;24.70;69.40
72604;DHT22;60645;56.968;24.196;2022-08-19T03:21:30;24.80;69.40
72604;DHT22;60645;56.968;24.196;2022-08-19T03:24:03;24.80;69.40
72604;DHT22;60645;56.968;24.196;2022-08-19T03:26:30;24.90;69.40
72604;DHT22;60645;56.968;24.196;2022-08-19T03:29:02;24.90;69.20
72604;DHT22;60645;56.968;24.196;2022-08-19T03:31:31;24.90;69.20
72604;DHT22;60645;56.968;24.196;2022-08-19T03:34:26;24.90;69.00
72604;DHT22;60645;56.968;24.196;2022-08-19T03:36:59;25.00;69.20
72604;DHT22;60645;56.968;24.196;2022-08-19T03:39:29;25.00;68.90
72604;DHT22;60645;56.968;24.196;2022-08-19T03:41:56;25.00;68.60
72604;DHT22;60645;56.968;24.196;2022-08-19T03:44:44;24.90;68.90
72604;DHT22;60645;56.968;24.196;2022-08-19T03:47:11;24.90;68.70
72604;DHT22;60645;56.968;24.196;2022-08-19T03:49:43;25.00;68.70
72604;DHT22;60645;56.968;24.196;2022-08-19T03:52:10;25.10;68.70
72604;DHT22;60645;56.968;24.196;2022-08-19T03:54:37;25.00;68.60
72604;DHT22;60645;56.968;24.196;2022-08-19T03:57:05;25.10;68.20
72604;DHT22;60645;56.968;24.196;2022-08-19T03:59:34;25.10;68.10
72604;DHT22;60645;56.968;24.196;2022-08-19T04:02:06;25.20;68.20
72604;DHT22;60645;56.968;24.196;2022-08-19T04:04:38;25.30;67.90
72604;DHT22;60645;56.968;24.196;2022-08-19T04:07:05;25.30;67.60
72604;DHT22;60645;56.968;24.196;2022-08-19T04:09:34;25.30;67.60
72604;DHT22;60645;56.968;24.196;2022-08-19T04:12:01;25.30;67.70
72604;DHT22;60645;56.968;24.196;2022-08-19T04:14:29;25.40;67.20
72604;DHT22;60645;56.968;24.196;2022-08-19T04:17:00;25.70;66.80
72604;DHT22;60645;56.968;24.196;2022-08-19T04:19:30;25.80;66.10
72604;DHT22;60645;56.968;24.196;2022-08-19T04:21:57;26.00;65.80
72604;DHT22;60645;56.968;24.196;2022-08-19T04:24:25;26.20;65.00
72604;DHT22;60645;56.968;24.196;2022-08-19T04:26:52;26.40;64.50
72604;DHT22;60645;56.968;24.196;2022-08-19T04:29:22;26.50;64.20
72604;DHT22;60645;56.968;24.196;2022-08-19T04:31:53;26.70;63.60
72604;DHT22;60645;56.968;24.196;2022-08-19T04:34:21;26.90;63.30
72604;DHT22;60645;56.968;24.196;2022-08-19T04:36:50;27.10;62.50
72604;DHT22;60645;56.968;24.196;2022-08-19T04:39:22;27.10;62.20
72604;DHT22;60645;56.968;24.196;2022-08-19T04:41:49;27.50;61.50
72604;DHT22;60645;56.968;24.196;2022-08-19T04:44:36;27.60;61.20
72604;DHT22;60645;56.968;24.196;2022-08-19T04:47:12;27.80;60.50
72604;DHT22;60645;56.968;24.196;2022-08-19T04:49:39;28.00;60.10
72604;DHT22;60645;56.968;24.196;2022-08-19T04:52:05;28.20;59.60
72604;DHT22;60645;56.968;24.196;2022-08-19T04:54:32;28.20;59.00
72604;DHT22;60645;56.968;24.196;2022-08-19T04:57:06;28.40;58.70
72604;DHT22;60645;56.968;24.196;2022-08-19T04:59:35;28.60;58.40
72604;DHT22;60645;56.968;24.196;2022-08-19T05:02:03;28.70;58.00
72604;DHT22;60645;56.968;24.196;2022-08-19T05:04:30;29.00;57.20
72604;DHT22;60645;56.968;24.196;2022-08-19T05:06:59;29.30;56.40
72604;DHT22;60645;56.968;24.196;2022-08-19T05:09:28;29.60;55.70
72604;DHT22;60645;56.968;24.196;2022-08-19T05:12:16;29.80;55.30
72604;DHT22;60645;56.968;24.196;2022-08-19T05:14:44;29.60;55.60
72604;DHT22;60645;56.968;24.196;2022-08-19T05:17:13;29.20;56.40
72604;DHT22;60645;56.968;24.196;2022-08-19T05:20:00;29.00;56.70
72604;DHT22;60645;56.968;24.196;2022-08-19T05:22:46;28.90;57.40
72604;DHT22;60645;56.968;24.196;2022-08-19T05:25:18;28.60;57.70
72604;DHT22;60645;56.968;24.196;2022-08-19T05:27:46;28.70;57.50
72604;DHT22;60645;56.968;24.196;2022-08-19T05:30:13;28.70;57.70
72604;DHT22;60645;56.968;24.196;2022-08-19T05:32:41;28.80;57.60
72604;DHT22;60645;56.968;24.196;2022-08-19T05:35:09;28.80;57.50
72604;DHT22;60645;56.968;24.196;2022-08-19T05:37:36;28.90;57.30
72604;DHT22;60645;56.968;24.196;2022-08-19T05:40:04;29.00;56.80
72604;DHT22;60645;56.968;24.196;2022-08-19T05:42:31;29.20;56.80
72604;DHT22;60645;56.968;24.196;2022-08-19T05:44:58;29.30;56.10
72604;DHT22;60645;56.968;24.196;2022-08-19T05:47:25;29.40;55.90
72604;DHT22;60645;56.968;24.196;2022-08-19T05:49:52;29.60;55.60
72604;DHT22;60645;56.968;24.196;2022-08-19T05:52:19;29.70;55.20
72604;DHT22;60645;56.968;24.196;2022-08-19T05:54:52;29.80;55.10
72604;DHT22;60645;56.968;24.196;2022-08-19T05:57:23;30.00;54.70
72604;DHT22;60645;56.968;24.196;2022-08-19T05:59:50;30.30;54.10
72604;DHT22;60645;56.968;24.196;2022-08-19T06:02:28;30.40;53.50
72604;DHT22;60645;56.968;24.196;2022-08-19T06:04:55;30.60;53.30
72604;DHT22;60645;56.968;24.196;2022-08-19T06:07:22;30.70;52.50
72604;DHT22;60645;56.968;24.196;2022-08-19T06:09:49;30.90;52.40
72604;DHT22;60645;56.968;24.196;2022-08-19T06:12:31;30.90;52.00
72604;DHT22;60645;56.968;24.196;2022-08-19T06:15:07;31.00;51.60
72604;DHT22;60645;56.968;24.196;2022-08-19T06:17:34;31.30;51.40
72604;DHT22;60645;56.968;24.196;2022-08-19T06:20:11;31.40;50.90
72604;DHT22;60645;56.968;24.196;2022-08-19T06:22:42;31.50;50.80
72604;DHT22;60645;56.968;24.196;2022-08-19T06:25:11;31.80;50.10
72604;DHT22;60645;56.968;24.196;2022-08-19T06:27:38;32.00;49.70
72604;DHT22;60645;56.968;24.196;2022-08-19T06:30:26;32.20;49.50
72604;DHT22;60645;56.968;24.196;2022-08-19T06:32:53;32.40;48.80
72604;DHT22;60645;56.968;24.196;2022-08-19T06:35:20;32.50;48.00
72604;DHT22;60645;56.968;24.196;2022-08-19T06:37:47;32.70;47.60
72604;DHT22;60645;56.968;24.196;2022-08-19T06:40:14;32.60;48.20
72604;DHT22;60645;56.968;24.196;2022-08-19T06:42:41;32.60;47.70
72604;DHT22;60645;56.968;24.196;2022-08-19T06:45:20;32.60;47.90
72604;DHT22;60645;56.968;24.196;2022-08-19T06:47:51;32.70;47.80
72604;DHT22;60645;56.968;24.196;2022-08-19T06:50:24;32.80;47.30
72604;DHT22;60645;56.968;24.196;2022-08-19T06:52:51;33.10;47.00
72604;DHT22;60645;56.968;24.196;2022-08-19T06:55:19;33.30;46.40
72604;DHT22;60645;56.968;24.196;2022-08-19T06:57:46;33.50;46.30
72604;DHT22;60645;56.968;24.196;2022-08-19T07:00:13;33.70;45.80
72604;DHT22;60645;56.968;24.196;2022-08-19T07:02:43;33.90;45.20
72604;DHT22;60645;56.968;24.196;2022-08-19T07:05:21;34.20;45.10
72604;DHT22;60645;56.968;24.196;2022-08-19T07:07:48;34.40;44.40
72604;DHT22;60645;56.968;24.196;2022-08-19T07:10:17;34.40;44.20
72604;DHT22;60645;56.968;24.196;2022-08-19T07:12:44;34.20;44.60
72604;DHT22;60645;56.968;24.196;2022-08-19T07:15:11;33.80;44.90
72604;DHT22;60645;56.968;24.196;2022-08-19T07:17:38;33.50;45.40
72604;DHT22;60645;56.968;24.196;2022-08-19T07:20:07;33.40;45.60
72604;DHT22;60645;56.968;24.196;2022-08-19T07:22:37;33.60;45.70
72604;DHT22;60645;56.968;24.196;2022-08-19T07:25:06;33.60;45.40
72604;DHT22;60645;56.968;24.196;2022-08-19T07:27:33;33.80;45.00
72604;DHT22;60645;56.968;24.196;2022-08-19T07:30:01;33.80;44.60
72604;DHT22;60645;56.968;24.196;2022-08-19T07:32:29;33.90;44.70
72604;DHT22;60645;56.968;24.196;2022-08-19T07:34:58;33.60;45.30
72604;DHT22;60645;56.968;24.196;2022-08-19T07:37:27;33.10;46.60
72604;DHT22;60645;56.968;24.196;2022-08-19T07:40:00;33.10;46.20
72604;DHT22;60645;56.968;24.196;2022-08-19T07:42:28;32.70;46.70
72604;DHT22;60645;56.968;24.196;2022-08-19T07:44:57;32.40;47.30
72604;DHT22;60645;56.968;24.196;2022-08-19T07:47:24;32.10;47.60
72604;DHT22;60645;56.968;24.196;2022-08-19T07:50:12;31.90;48.10
72604;DHT22;60645;56.968;24.196;2022-08-19T07:52:39;31.60;48.10
72604;DHT22;60645;56.968;24.196;2022-08-19T07:55:08;31.70;48.40
72604;DHT22;60645;56.968;24.196;2022-08-19T07:57:56;31.60;48.00
72604;DHT22;60645;56.968;24.196;2022-08-19T08:00:23;31.50;48.80
72604;DHT22;60645;56.968;24.196;2022-08-19T08:02:51;31.50;48.90
72604;DHT22;60645;56.968;24.196;2022-08-19T08:05:22;31.90;48.50
72604;DHT22;60645;56.968;24.196;2022-08-19T08:08:11;32.70;47.70
72604;DHT22;60645;56.968;24.196;2022-08-19T08:10:58;33.50;45.50
72604;DHT22;60645;56.968;24.196;2022-08-19T08:13:25;33.90;45.10
72604;DHT22;60645;56.968;24.196;2022-08-19T08:15:54;34.40;44.70
72604;DHT22;60645;56.968;24.196;2022-08-19T08:18:24;34.70;44.30
72604;DHT22;60645;56.968;24.196;2022-08-19T08:20:54;34.80;43.00
72604;DHT22;60645;56.968;24.196;2022-08-19T08:23:22;34.70;42.90
72604;DHT22;60645;56.968;24.196;2022-08-19T08:25:53;34.30;43.30
72604;DHT22;60645;56.968;24.196;2022-08-19T08:28:21;34.00;43.50
72604;DHT22;60645;56.968;24.196;2022-08-19T08:30:50;33.50;44.50
72604;DHT22;60645;56.968;24.196;2022-08-19T08:33:19;33.00;45.10
72604;DHT22;60645;56.968;24.196;2022-08-19T08:36:08;32.60;45.40
72604;DHT22;60645;56.968;24.196;2022-08-19T08:38:35;32.40;45.90
72604;DHT22;60645;56.968;24.196;2022-08-19T08:44:01;32.20;46.70
72604;DHT22;60645;56.968;24.196;2022-08-19T08:46:41;32.10;46.20
72604;DHT22;60645;56.968;24.196;2022-08-19T08:52:06;31.90;46.80
72604;DHT22;60645;56.968;24.196;2022-08-19T08:54:48;32.00;46.80
72604;DHT22;60645;56.968;24.196;2022-08-19T08:57:41;32.20;46.40
72604;DHT22;60645;56.968;24.196;2022-08-19T09:00:16;32.20;46.50
72604;DHT22;60645;56.968;24.196;2022-08-19T09:02:44;31.90;47.20
72604;DHT22;60645;56.968;24.196;2022-08-19T09:05:18;31.60;47.30
72604;DHT22;60645;56.968;24.196;2022-08-19T09:08:03;31.40;47.60
72604;DHT22;60645;56.968;24.196;2022-08-19T09:10:43;31.10;48.10
72604;DHT22;60645;56.968;24.196;2022-08-19T09:13:52;31.00;48.60
72604;DHT22;60645;56.968;24.196;2022-08-19T09:16:10;30.90;49.00
72604;DHT22;60645;56.968;24.196;2022-08-19T09:18:47;30.60;48.90
72604;DHT22;60645;56.968;24.196;2022-08-19T09:21:15;30.50;48.60
72604;DHT22;60645;56.968;24.196;2022-08-19T09:23:43;30.50;48.70
72604;DHT22;60645;56.968;24.196;2022-08-19T09:26:12;30.60;48.90
72604;DHT22;60645;56.968;24.196;2022-08-19T09:28:44;30.50;48.30
72604;DHT22;60645;56.968;24.196;2022-08-19T09:31:18;30.50;48.00
72604;DHT22;60645;56.968;24.196;2022-08-19T09:33:47;30.60;48.30
72604;DHT22;60645;56.968;24.196;2022-08-19T09:36:20;30.70;48.20
72604;DHT22;60645;56.968;24.196;2022-08-19T09:39:00;30.90;46.20
72604;DHT22;60645;56.968;24.196;2022-08-19T09:41:27;31.00;45.70
72604;DHT22;60645;56.968;24.196;2022-08-19T09:43:56;31.40;45.40
72604;DHT22;60645;56.968;24.196;2022-08-19T09:46:26;31.50;45.10
72604;DHT22;60645;56.968;24.196;2022-08-19T09:48:58;31.80;45.20
72604;DHT22;60645;56.968;24.196;2022-08-19T09:51:33;32.30;44.50
72604;DHT22;60645;56.968;24.196;2022-08-19T09:54:04;32.90;43.60
72604;DHT22;60645;56.968;24.196;2022-08-19T09:56:31;33.00;43.60
72604;DHT22;60645;56.968;24.196;2022-08-19T09:59:01;32.90;43.00
72604;DHT22;60645;56.968;24.196;2022-08-19T10:01:29;33.00;42.40
72604;DHT22;60645;56.968;24.196;2022-08-19T10:03:59;32.70;42.70
72604;DHT22;60645;56.968;24.196;2022-08-19T10:06:28;32.50;43.00
72604;DHT22;60645;56.968;24.196;2022-08-19T10:09:12;32.60;42.80
72604;DHT22;60645;56.968;24.196;2022-08-19T10:11:41;33.00;42.30
72604;DHT22;60645;56.968;24.196;2022-08-19T10:14:19;33.20;42.10
72604;DHT22;60645;56.968;24.196;2022-08-19T10:16:49;33.30;41.70
72604;DHT22;60645;56.968;24.196;2022-08-19T10:19:17;33.30;42.00
72604;DHT22;60645;56.968;24.196;2022-08-19T10:21:52;33.30;42.00
72604;DHT22;60645;56.968;24.196;2022-08-19T10:24:19;33.20;41.90
72604;DHT22;60645;56.968;24.196;2022-08-19T10:26:47;33.30;41.80
72604;DHT22;60645;56.968;24.196;2022-08-19T10:29:22;33.30;41.20
72604;DHT22;60645;56.968;24.196;2022-08-19T10:32:02;33.20;41.40
72604;DHT22;60645;56.968;24.196;2022-08-19T10:34:30;33.10;41.50
72604;DHT22;60645;56.968;24.196;2022-08-19T10:36:58;33.30;41.30
72604;DHT22;60645;56.968;24.196;2022-08-19T10:39:35;33.30;41.00
72604;DHT22;60645;56.968;24.196;2022-08-19T10:42:09;33.40;41.10
72604;DHT22;60645;56.968;24.196;2022-08-19T10:44:40;33.50;40.80
72604;DHT22;60645;56.968;24.196;2022-08-19T10:47:08;33.50;40.70
72604;DHT22;60645;56.968;24.196;2022-08-19T10:49:51;33.50;40.40
72604;DHT22;60645;56.968;24.196;2022-08-19T10:52:39;33.40;40.70
72604;DHT22;60645;56.968;24.196;2022-08-19T10:55:22;33.30;40.70
72604;DHT22;60645;56.968;24.196;2022-08-19T10:58:18;33.30;40.70
72604;DHT22;60645;56.968;24.196;2022-08-19T11:00:56;33.40;40.00
72604;DHT22;60645;56.968;24.196;2022-08-19T11:03:26;33.30;39.80
72604;DHT22;60645;56.968;24.196;2022-08-19T11:06:06;33.20;39.70
72604;DHT22;60645;56.968;24.196;2022-08-19T11:08:34;33.20;40.10
72604;DHT22;60645;56.968;24.196;2022-08-19T11:11:05;33.10;40.50
72604;DHT22;60645;56.968;24.196;2022-08-19T11:13:36;33.00;40.90
72604;DHT22;60645;56.968;24.196;2022-08-19T11:16:10;33.00;40.50
72604;DHT22;60645;56.968;24.196;2022-08-19T11:18:39;32.80;39.90
72604;DHT22;60645;56.968;24.196;2022-08-19T11:21:12;32.70;40.50
72604;DHT22;60645;56.968;24.196;2022-08-19T11:23:40;32.70;40.70
72604;DHT22;60645;56.968;24.196;2022-08-19T11:26:07;32.60;40.90
72604;DHT22;60645;56.968;24.196;2022-08-19T11:28:34;32.60;41.10
72604;DHT22;60645;56.968;24.196;2022-08-19T11:31:01;32.50;40.90
72604;DHT22;60645;56.968;24.196;2022-08-19T11:33:31;32.50;41.20
72604;DHT22;60645;56.968;24.196;2022-08-19T11:35:59;32.40;40.40
72604;DHT22;60645;56.968;24.196;2022-08-19T11:38:27;32.40;40.60
72604;DHT22;60645;56.968;24.196;2022-08-19T11:40:58;32.30;41.60
72604;DHT22;60645;56.968;24.196;2022-08-19T11:43:26;32.30;41.40
72604;DHT22;60645;56.968;24.196;2022-08-19T11:45:55;32.30;41.40
72604;DHT22;60645;56.968;24.196;2022-08-19T11:48:23;32.20;40.90
72604;DHT22;60645;56.968;24.196;2022-08-19T11:50:51;32.20;41.20
72604;DHT22;60645;56.968;24.196;2022-08-19T11:53:20;32.20;41.00
72604;DHT22;60645;56.968;24.196;2022-08-19T11:55:47;32.20;40.60
72604;DHT22;60645;56.968;24.196;2022-08-19T11:58:16;32.10;40.40
72604;DHT22;60645;56.968;24.196;2022-08-19T12:00:44;32.10;40.50
72604;DHT22;60645;56.968;24.196;2022-08-19T12:03:12;32.00;41.10
72604;DHT22;60645;56.968;24.196;2022-08-19T12:05:41;32.00;40.80
72604;DHT22;60645;56.968;24.196;2022-08-19T12:08:08;32.00;40.90
72604;DHT22;60645;56.968;24.196;2022-08-19T12:10:36;31.90;40.70
72604;DHT22;60645;56.968;24.196;2022-08-19T12:13:03;31.90;40.90
72604;DHT22;60645;56.968;24.196;2022-08-19T12:15:30;31.80;40.40
72604;DHT22;60645;56.968;24.196;2022-08-19T12:18:04;31.80;40.40
72604;DHT22;60645;56.968;24.196;2022-08-19T12:20:32;31.80;40.60
72604;DHT22;60645;56.968;24.196;2022-08-19T12:23:03;31.70;40.40
72604;DHT22;60645;56.968;24.196;2022-08-19T12:25:30;31.60;40.40
72604;DHT22;60645;56.968;24.196;2022-08-19T12:27:58;31.60;40.50
72604;DHT22;60645;56.968;24.196;2022-08-19T12:30:26;31.50;40.60
72604;DHT22;60645;56.968;24.196;2022-08-19T12:32:53;31.50;41.00
72604;DHT22;60645;56.968;24.196;2022-08-19T12:35:20;31.50;40.90
72604;DHT22;60645;56.968;24.196;2022-08-19T12:37:48;31.40;41.10
72604;DHT22;60645;56.968;24.196;2022-08-19T12:40:23;31.50;41.30
72604;DHT22;60645;56.968;24.196;2022-08-19T12:42:53;31.40;40.50
72604;DHT22;60645;56.968;24.196;2022-08-19T12:45:20;31.40;40.30
72604;DHT22;60645;56.968;24.196;2022-08-19T12:47:47;31.40;40.70
72604;DHT22;60645;56.968;24.196;2022-08-19T12:50:15;31.30;40.50
72604;DHT22;60645;56.968;24.196;2022-08-19T12:52:42;31.30;41.00
72604;DHT22;60645;56.968;24.196;2022-08-19T12:55:10;31.30;41.40
72604;DHT22;60645;56.968;24.196;2022-08-19T12:57:38;31.30;40.50
72604;DHT22;60645;56.968;24.196;2022-08-19T13:00:17;31.30;40.30
72604;DHT22;60645;56.968;24.196;2022-08-19T13:02:46;31.20;40.50
72604;DHT22;60645;56.968;24.196;2022-08-19T13:05:16;31.20;40.70
72604;DHT22;60645;56.968;24.196;2022-08-19T13:07:43;31.20;41.20
72604;DHT22;60645;56.968;24.196;2022-08-19T13:10:13;31.20;41.20
72604;DHT22;60645;56.968;24.196;2022-08-19T13:12:42;31.20;41.00
72604;DHT22;60645;56.968;24.196;2022-08-19T13:15:11;31.10;41.20
72604;DHT22;60645;56.968;24.196;2022-08-19T13:17:41;31.10;41.20
72604;DHT22;60645;56.968;24.196;2022-08-19T13:20:10;31.10;40.00
72604;DHT22;60645;56.968;24.196;2022-08-19T13:22:38;31.20;39.90
72604;DHT22;60645;56.968;24.196;2022-08-19T13:25:06;31.10;39.70
72604;DHT22;60645;56.968;24.196;2022-08-19T13:27:33;31.00;39.70
72604;DHT22;60645;56.968;24.196;2022-08-19T13:30:01;31.00;39.80
72604;DHT22;60645;56.968;24.196;2022-08-19T13:32:47;31.00;39.80
72604;DHT22;60645;56.968;24.196;2022-08-19T13:35:33;30.90;40.10
72604;DHT22;60645;56.968;24.196;2022-08-19T13:38:00;30.90;40.20
72604;DHT22;60645;56.968;24.196;2022-08-19T13:40:38;30.80;40.10
72604;DHT22;60645;56.968;24.196;2022-08-19T13:43:08;30.80;40.30
72604;DHT22;60645;56.968;24.196;2022-08-19T13:45:50;30.80;40.50
72604;DHT22;60645;56.968;24.196;2022-08-19T13:48:18;30.70;41.00
72604;DHT22;60645;56.968;24.196;2022-08-19T13:50:45;30.70;40.40
72604;DHT22;60645;56.968;24.196;2022-08-19T13:53:15;30.60;40.20
72604;DHT22;60645;56.968;24.196;2022-08-19T13:55:43;30.60;40.20
72604;DHT22;60645;56.968;24.196;2022-08-19T13:58:11;30.70;40.10
72604;DHT22;60645;56.968;24.196;2022-08-19T14:00:41;30.60;40.10
72604;DHT22;60645;56.968;24.196;2022-08-19T14:03:09;30.60;39.80
72604;DHT22;60645;56.968;24.196;2022-08-19T14:05:37;30.50;40.00
72604;DHT22;60645;56.968;24.196;2022-08-19T14:08:04;30.50;40.20
72604;DHT22;60645;56.968;24.196;2022-08-19T14:10:32;30.40;40.20
72604;DHT22;60645;56.968;24.196;2022-08-19T14:13:01;30.50;40.30
72604;DHT22;60645;56.968;24.196;2022-08-19T14:15:29;30.40;40.40
72604;DHT22;60645;56.968;24.196;2022-08-19T14:17:57;30.40;40.80
72604;DHT22;60645;56.968;24.196;2022-08-19T14:20:24;30.40;41.10
72604;DHT22;60645;56.968;24.196;2022-08-19T14:22:52;30.40;40.90
72604;DHT22;60645;56.968;24.196;2022-08-19T14:25:25;30.40;41.20
72604;DHT22;60645;56.968;24.196;2022-08-19T14:27:53;30.40;41.20
72604;DHT22;60645;56.968;24.196;2022-08-19T14:30:24;30.50;41.40
72604;DHT22;60645;56.968;24.196;2022-08-19T14:32:54;30.40;41.90
72604;DHT22;60645;56.968;24.196;2022-08-19T14:35:21;30.50;41.90
72604;DHT22;60645;56.968;24.196;2022-08-19T14:37:49;30.30;41.90
72604;DHT22;60645;56.968;24.196;2022-08-19T14:40:18;30.40;41.90
72604;DHT22;60645;56.968;24.196;2022-08-19T14:42:53;30.30;42.10
72604;DHT22;60645;56.968;24.196;2022-08-19T14:45:22;30.30;42.60
72604;DHT22;60645;56.968;24.196;2022-08-19T14:47:49;30.30;42.60
72604;DHT22;60645;56.968;24.196;2022-08-19T14:50:16;30.40;42.40
72604;DHT22;60645;56.968;24.196;2022-08-19T14:52:48;30.30;42.70
72604;DHT22;60645;56.968;24.196;2022-08-19T14:55:16;30.40;42.70
72604;DHT22;60645;56.968;24.196;2022-08-19T14:57:44;30.40;42.70
72604;DHT22;60645;56.968;24.196;2022-08-19T15:00:12;30.40;42.60
72604;DHT22;60645;56.968;24.196;2022-08-19T15:02:40;30.40;42.40
72604;DHT22;60645;56.968;24.196;2022-08-19T15:05:08;30.30;42.50
72604;DHT22;60645;56.968;24.196;2022-08-19T15:07:36;30.40;42.50
72604;DHT22;60645;56.968;24.196;2022-08-19T15:10:05;30.40;42.00
72604;DHT22;60645;56.968;24.196;2022-08-19T15:12:33;30.30;41.80
72604;DHT22;60645;56.968;24.196;2022-08-19T15:15:01;30.30;41.70
72604;DHT22;60645;56.968;24.196;2022-08-19T15:17:28;30.40;41.70
72604;DHT22;60645;56.968;24.196;2022-08-19T15:20:18;30.30;42.20
72604;DHT22;60645;56.968;24.196;2022-08-19T15:22:45;30.30;42.00
72604;DHT22;60645;56.968;24.196;2022-08-19T15:25:14;30.40;42.20
72604;DHT22;60645;56.968;24.196;2022-08-19T15:27:42;30.20;42.40
72604;DHT22;60645;56.968;24.196;2022-08-19T15:30:11;30.20;42.50
72604;DHT22;60645;56.968;24.196;2022-08-19T15:32:38;30.20;42.60
72604;DHT22;60645;56.968;24.196;2022-08-19T15:35:06;30.20;42.80
72604;DHT22;60645;56.968;24.196;2022-08-19T15:37:34;30.20;42.70
72604;DHT22;60645;56.968;24.196;2022-08-19T15:40:04;30.20;42.60
72604;DHT22;60645;56.968;24.196;2022-08-19T15:42:32;30.20;42.80